sensor_id;sensor_type;location;lat;lon;timestamp;temperature;humidity
9941;DHT22;5009;50.656;7.188;2023-03-04T04:17:14;2.70;99.90
9941;DHT22;5009;50.656;7.188;2023-03-04T04:19:40;2.70;99.90
9941;DHT22;5009;50.656;7.188;2023-03-04T04:22:08;2.70;99.90
9941;DHT22;5009;50.656;7.188;2023-03-04T04:24:36;2.70;99.90
9941;DHT22;5009;50.656;7.188;2023-03-04T04:27:01;2.70;99.90
9941;DHT22;5009;50.656;7.188;2023-03-04T04:29:28;2.70;99.90
9941;DHT22;5009;50.656;7.188;2023-03-04T04:31:54;2.70;99.90
9941;DHT22;5009;50.656;7.188;2023-03-04T04:34:20;2.70;99.90
9941;DHT22;5009;50.656;7.188;2023-03-04T04:36:46;2.70;99.90
9941;DHT22;5009;50.656;7.188;2023-03-04T04:39:12;2.70;99.90
9941;DHT22;5009;50.656;7.188;2023-03-04T04:41:40;2.60;99.90
9941;DHT22;5009;50.656;7.188;2023-03-04T04:44:06;2.60;99.90
9941;DHT22;5009;50.656;7.188;2023-03-04T04:46:32;2.70;99.90
9941;DHT22;5009;50.656;7.188;2023-03-04T04:48:58;2.70;99.90
9941;DHT22;5009;50.656;7.188;2023-03-04T04:51:24;2.80;99.90
9941;DHT22;5009;50.656;7.188;2023-03-04T04:53:49;2.80;99.90
9941;DHT22;5009;50.656;7.188;2023-03-04T04:56:17;2.80;99.90
9941;DHT22;5009;50.656;7.188;2023-03-04T04:58:44;2.80;99.90
9941;DHT22;5009;50.656;7.188;2023-03-04T05:01:10;2.80;99.90
9941;DHT22;5009;50.656;7.188;2023-03-04T05:03:36;2.80;99.90
9941;DHT22;5009;50.656;7.188;2023-03-04T05:06:03;2.90;99.90
9941;DHT22;5009;50.656;7.188;2023-03-04T05:08:29;2.80;99.90
9941;DHT22;5009;50.656;7.188;2023-03-04T05:10:58;2.90;99.90
9941;DHT22;5009;50.656;7.188;2023-03-04T05:13:24;2.90;99.90
9941;DHT22;5009;50.656;7.188;2023-03-04T05:15:51;2.90;99.90
9941;DHT22;5009;50.656;7.188;2023-03-04T05:18:18;2.90;99.90
9941;DHT22;5009;50.656;7.188;2023-03-04T05:20:43;2.90;99.90
9941;DHT22;5009;50.656;7.188;2023-03-04T05:23:09;2.90;99.90
9941;DHT22;5009;50.656;7.188;2023-03-04T05:25:34;2.90;99.90
9941;DHT22;5009;50.656;7.188;2023-03-04T05:28:00;2.90;99.90
9941;DHT22;5009;50.656;7.188;2023-03-04T05:30:26;2.90;99.90
9941;DHT22;5009;50.656;7.188;2023-03-04T05:32:52;2.90;99.90
9941;DHT22;5009;50.656;7.188;2023-03-04T05:35:18;2.90;99.90
9941;DHT22;5009;50.656;7.188;2023-03-04T05:37:43;2.90;99.90
9941;DHT22;5009;50.656;7.188;2023-03-04T05:40:10;2.90;99.90
9941;DHT22;5009;50.656;7.188;2023-03-04T05:42:36;2.90;99.90
9941;DHT22;5009;50.656;7.188;2023-03-04T05:45:01;2.90;99.90
9941;DHT22;5009;50.656;7.188;2023-03-04T05:47:27;3.00;99.90
9941;DHT22;5009;50.656;7.188;2023-03-04T05:49:52;3.00;99.90
9941;DHT22;5009;50.656;7.188;2023-03-04T05:52:18;3.00;99.90
9941;DHT22;5009;50.656;7.188;2023-03-04T05:54:44;3.00;99.90
9941;DHT22;5009;50.656;7.188;2023-03-04T05:57:09;3.00;99.90
9941;DHT22;5009;50.656;7.188;2023-03-04T05:59:35;3.00;99.90
9941;DHT22;5009;50.656;7.188;2023-03-04T06:02:01;3.00;99.90
9941;DHT22;5009;50.656;7.188;2023-03-04T06:04:26;3.00;99.90
9941;DHT22;5009;50.656;7.188;2023-03-04T06:06:52;3.00;99.90
9941;DHT22;5009;50.656;7.188;2023-03-04T06:09:17;3.00;99.90
9941;DHT22;5009;50.656;7.188;2023-03-04T06:11:45;3.00;99.90
9941;DHT22;5009;50.656;7.188;2023-03-04T06:14:11;3.00;99.90
9941;DHT22;5009;50.656;7.188;2023-03-04T06:16:36;3.00;99.90
9941;DHT22;5009;50.656;7.188;2023-03-04T06:19:02;3.00;99.90
9941;DHT22;5009;50.656;7.188;2023-03-04T06:21:28;3.00;99.90
9941;DHT22;5009;50.656;7.188;2023-03-04T06:23:53;3.00;99.90
9941;DHT22;5009;50.656;7.188;2023-03-04T06:26:19;3.00;99.90
9941;DHT22;5009;50.656;7.188;2023-03-04T06:29:18;3.00;99.90
9941;DHT22;5009;50.656;7.188;2023-03-04T06:31:44;3.00;99.90
9941;DHT22;5009;50.656;7.188;2023-03-04T06:34:09;3.00;99.90
9941;DHT22;5009;50.656;7.188;2023-03-04T06:36:35;3.00;99.90
9941;DHT22;5009;50.656;7.188;2023-03-04T06:39:02;3.00;99.90
9941;DHT22;5009;50.656;7.188;2023-03-04T06:41:28;3.00;99.90
9941;DHT22;5009;50.656;7.188;2023-03-04T06:43:54;3.10;99.90
9941;DHT22;5009;50.656;7.188;2023-03-04T06:46:20;3.10;99.90
9941;DHT22;5009;50.656;7.188;2023-03-04T06:48:45;3.10;99.90
9941;DHT22;5009;50.656;7.188;2023-03-04T06:51:11;3.10;99.90
9941;DHT22;5009;50.656;7.188;2023-03-04T06:53:38;3.10;99.90
9941;DHT22;5009;50.656;7.188;2023-03-04T06:56:04;3.20;99.90
9941;DHT22;5009;50.656;7.188;2023-03-04T06:58:31;3.20;99.90
9941;DHT22;5009;50.656;7.188;2023-03-04T07:00:56;3.20;99.90
9941;DHT22;5009;50.656;7.188;2023-03-04T07:03:22;3.20;99.90
9941;DHT22;5009;50.656;7.188;2023-03-04T07:05:48;3.20;99.90
9941;DHT22;5009;50.656;7.188;2023-03-04T07:08:14;3.30;99.90
9941;DHT22;5009;50.656;7.188;2023-03-04T07:10:40;3.30;99.90
9941;DHT22;5009;50.656;7.188;2023-03-04T07:13:05;3.30;99.90
9941;DHT22;5009;50.656;7.188;2023-03-04T07:15:31;3.30;99.90
9941;DHT22;5009;50.656;7.188;2023-03-04T07:17:56;3.40;99.90
9941;DHT22;5009;50.656;7.188;2023-03-04T07:20:22;3.40;99.90
9941;DHT22;5009;50.656;7.188;2023-03-04T07:22:48;3.40;99.90
9941;DHT22;5009;50.656;7.188;2023-03-04T07:25:13;3.40;99.90
9941;DHT22;5009;50.656;7.188;2023-03-04T07:27:39;3.40;99.90
9941;DHT22;5009;50.656;7.188;2023-03-04T07:30:07;3.50;99.90
9941;DHT22;5009;50.656;7.188;2023-03-04T07:32:33;3.50;99.90
9941;DHT22;5009;50.656;7.188;2023-03-04T07:35:00;3.50;99.90
9941;DHT22;5009;50.656;7.188;2023-03-04T07:37:26;3.50;99.90
9941;DHT22;5009;50.656;7.188;2023-03-04T07:39:51;3.50;99.90
9941;DHT22;5009;50.656;7.188;2023-03-04T07:42:17;3.50;99.90
9941;DHT22;5009;50.656;7.188;2023-03-04T07:44:42;3.50;99.90
9941;DHT22;5009;50.656;7.188;2023-03-04T07:47:08;3.60;99.90
9941;DHT22;5009;50.656;7.188;2023-03-04T07:49:33;3.60;99.90
9941;DHT22;5009;50.656;7.188;2023-03-04T07:52:03;3.60;99.90
9941;DHT22;5009;50.656;7.188;2023-03-04T07:54:28;3.70;99.90
9941;DHT22;5009;50.656;7.188;2023-03-04T07:56:54;3.70;99.90
9941;DHT22;5009;50.656;7.188;2023-03-04T07:59:19;3.80;99.90
9941;DHT22;5009;50.656;7.188;2023-03-04T08:01:45;3.80;99.90
9941;DHT22;5009;50.656;7.188;2023-03-04T08:04:11;3.80;99.90
9941;DHT22;5009;50.656;7.188;2023-03-04T08:06:39;3.90;99.90
9941;DHT22;5009;50.656;7.188;2023-03-04T08:09:07;3.90;99.90
9941;DHT22;5009;50.656;7.188;2023-03-04T08:11:34;3.90;99.90
9941;DHT22;5009;50.656;7.188;2023-03-04T08:14:00;3.90;99.90
9941;DHT22;5009;50.656;7.188;2023-03-04T08:16:26;4.00;99.90
9941;DHT22;5009;50.656;7.188;2023-03-04T08:18:54;4.00;99.90
9941;DHT22;5009;50.656;7.188;2023-03-04T08:21:22;4.00;99.90
9941;DHT22;5009;50.656;7.188;2023-03-04T08:23:49;4.00;99.90
9941;DHT22;5009;50.656;7.188;2023-03-04T08:26:26;4.00;99.90
9941;DHT22;5009;50.656;7.188;2023-03-04T08:28:54;4.10;99.90
9941;DHT22;5009;50.656;7.188;2023-03-04T08:31:21;4.10;99.90
9941;DHT22;5009;50.656;7.188;2023-03-04T08:33:47;4.10;99.90
9941;DHT22;5009;50.656;7.188;2023-03-04T08:36:14;4.20;99.90
9941;DHT22;5009;50.656;7.188;2023-03-04T08:38:39;4.30;99.90
9941;DHT22;5009;50.656;7.188;2023-03-04T08:41:05;4.30;99.90
9941;DHT22;5009;50.656;7.188;2023-03-04T08:43:31;4.40;99.90
9941;DHT22;5009;50.656;7.188;2023-03-04T08:45:57;4.40;99.90
9941;DHT22;5009;50.656;7.188;2023-03-04T08:48:24;4.50;99.90
9941;DHT22;5009;50.656;7.188;2023-03-04T08:50:50;4.50;99.90
9941;DHT22;5009;50.656;7.188;2023-03-04T08:53:17;4.50;99.90
9941;DHT22;5009;50.656;7.188;2023-03-04T08:55:43;4.50;99.90
9941;DHT22;5009;50.656;7.188;2023-03-04T08:58:10;4.60;99.90
9941;DHT22;5009;50.656;7.188;2023-03-04T09:00:37;4.60;99.90
9941;DHT22;5009;50.656;7.188;2023-03-04T09:03:03;4.70;99.90
9941;DHT22;5009;50.656;7.188;2023-03-04T09:05:29;4.70;99.90
9941;DHT22;5009;50.656;7.188;2023-03-04T09:07:56;4.70;99.90
9941;DHT22;5009;50.656;7.188;2023-03-04T09:10:22;4.70;99.90
9941;DHT22;5009;50.656;7.188;2023-03-04T09:12:48;4.80;99.90
9941;DHT22;5009;50.656;7.188;2023-03-04T09:15:14;4.80;99.90
9941;DHT22;5009;50.656;7.188;2023-03-04T09:17:40;4.90;99.90
9941;DHT22;5009;50.656;7.188;2023-03-04T09:20:07;4.90;99.90
9941;DHT22;5009;50.656;7.188;2023-03-04T09:22:35;4.90;99.90
9941;DHT22;5009;50.656;7.188;2023-03-04T09:25:01;4.90;99.90
9941;DHT22;5009;50.656;7.188;2023-03-04T09:27:27;5.00;99.90
9941;DHT22;5009;50.656;7.188;2023-03-04T09:29:52;5.00;99.90
9941;DHT22;5009;50.656;7.188;2023-03-04T09:32:18;5.00;99.90
9941;DHT22;5009;50.656;7.188;2023-03-04T09:34:43;5.00;99.90
9941;DHT22;5009;50.656;7.188;2023-03-04T09:37:09;5.10;99.90
9941;DHT22;5009;50.656;7.188;2023-03-04T09:39:35;5.10;99.90
9941;DHT22;5009;50.656;7.188;2023-03-04T09:42:01;5.10;99.90
9941;DHT22;5009;50.656;7.188;2023-03-04T09:44:32;5.10;99.90
9941;DHT22;5009;50.656;7.188;2023-03-04T09:47:14;5.10;99.90
9941;DHT22;5009;50.656;7.188;2023-03-04T09:49:44;5.10;99.90
9941;DHT22;5009;50.656;7.188;2023-03-04T09:55:30;5.20;99.90
9941;DHT22;5009;50.656;7.188;2023-03-04T10:00:37;5.20;99.90
9941;DHT22;5009;50.656;7.188;2023-03-04T10:03:23;5.20;99.90
9941;DHT22;5009;50.656;7.188;2023-03-04T10:05:59;5.30;99.90
9941;DHT22;5009;50.656;7.188;2023-03-04T10:11:17;5.40;99.90
9941;DHT22;5009;50.656;7.188;2023-03-04T10:16:51;5.50;99.90
9941;DHT22;5009;50.656;7.188;2023-03-04T10:21:45;5.50;99.90
9941;DHT22;5009;50.656;7.188;2023-03-04T10:24:13;5.60;99.90
9941;DHT22;5009;50.656;7.188;2023-03-04T10:26:44;5.60;99.90
9941;DHT22;5009;50.656;7.188;2023-03-04T10:29:18;5.70;99.90
9941;DHT22;5009;50.656;7.188;2023-03-04T10:31:45;5.80;99.90
9941;DHT22;5009;50.656;7.188;2023-03-04T10:34:12;5.80;99.90
9941;DHT22;5009;50.656;7.188;2023-03-04T10:36:54;6.00;99.90
9941;DHT22;5009;50.656;7.188;2023-03-04T10:41:56;6.20;99.90
9941;DHT22;5009;50.656;7.188;2023-03-04T10:44:23;6.30;99.90
9941;DHT22;5009;50.656;7.188;2023-03-04T10:46:49;6.40;99.90
9941;DHT22;5009;50.656;7.188;2023-03-04T10:49:18;6.40;99.90
9941;DHT22;5009;50.656;7.188;2023-03-04T10:52:00;6.40;99.90
9941;DHT22;5009;50.656;7.188;2023-03-04T10:54:45;6.40;99.90
9941;DHT22;5009;50.656;7.188;2023-03-04T10:57:23;6.40;99.90
9941;DHT22;5009;50.656;7.188;2023-03-04T11:00:19;6.40;99.90
9941;DHT22;5009;50.656;7.188;2023-03-04T11:02:48;6.40;99.90
9941;DHT22;5009;50.656;7.188;2023-03-04T11:10:23;6.60;99.90
9941;DHT22;5009;50.656;7.188;2023-03-04T11:12:59;6.70;99.90
9941;DHT22;5009;50.656;7.188;2023-03-04T11:15:28;6.80;99.90
9941;DHT22;5009;50.656;7.188;2023-03-04T11:18:03;6.90;99.90
9941;DHT22;5009;50.656;7.188;2023-03-04T11:20:39;6.90;99.90
9941;DHT22;5009;50.656;7.188;2023-03-04T11:26:15;6.90;99.90
9941;DHT22;5009;50.656;7.188;2023-03-04T11:28:52;7.00;99.90
9941;DHT22;5009;50.656;7.188;2023-03-04T11:31:26;7.00;99.90
9941;DHT22;5009;50.656;7.188;2023-03-04T11:33:58;7.10;99.90
9941;DHT22;5009;50.656;7.188;2023-03-04T11:39:23;7.10;99.90
9941;DHT22;5009;50.656;7.188;2023-03-04T11:41:55;7.10;99.90
9941;DHT22;5009;50.656;7.188;2023-03-04T11:44:23;7.20;99.90
9941;DHT22;5009;50.656;7.188;2023-03-04T11:46:54;7.20;99.90
9941;DHT22;5009;50.656;7.188;2023-03-04T11:57:23;7.20;99.90
9941;DHT22;5009;50.656;7.188;2023-03-04T12:00:19;7.20;99.90
9941;DHT22;5009;50.656;7.188;2023-03-04T12:11:41;7.30;99.90
9941;DHT22;5009;50.656;7.188;2023-03-04T12:14:26;7.30;99.90
9941;DHT22;5009;50.656;7.188;2023-03-04T12:22:24;7.30;99.90
9941;DHT22;5009;50.656;7.188;2023-03-04T12:30:37;7.40;99.90
9941;DHT22;5009;50.656;7.188;2023-03-04T12:35:58;7.40;99.90
9941;DHT22;5009;50.656;7.188;2023-03-04T12:50:01;7.40;99.90
9941;DHT22;5009;50.656;7.188;2023-03-04T12:52:15;7.40;99.90
9941;DHT22;5009;50.656;7.188;2023-03-04T12:54:49;7.40;99.90
9941;DHT22;5009;50.656;7.188;2023-03-04T12:57:24;7.50;99.90
9941;DHT22;5009;50.656;7.188;2023-03-04T13:00:16;7.50;99.90
9941;DHT22;5009;50.656;7.188;2023-03-04T13:02:58;7.50;99.90
9941;DHT22;5009;50.656;7.188;2023-03-04T13:16:49;7.50;99.90
9941;DHT22;5009;50.656;7.188;2023-03-04T13:19:41;7.50;99.90
9941;DHT22;5009;50.656;7.188;2023-03-04T13:25:26;7.50;99.90
9941;DHT22;5009;50.656;7.188;2023-03-04T13:43:55;7.70;99.40
9941;DHT22;5009;50.656;7.188;2023-03-04T13:51:41;7.60;99.40
9941;DHT22;5009;50.656;7.188;2023-03-04T13:56:45;7.70;99.20
9941;DHT22;5009;50.656;7.188;2023-03-04T13:59:47;7.70;99.30
9941;DHT22;5009;50.656;7.188;2023-03-04T14:02:16;7.80;99.10
9941;DHT22;5009;50.656;7.188;2023-03-04T14:04:45;7.80;99.00
9941;DHT22;5009;50.656;7.188;2023-03-04T14:07:30;7.80;98.80
9941;DHT22;5009;50.656;7.188;2023-03-04T14:12:30;7.80;99.10
9941;DHT22;5009;50.656;7.188;2023-03-04T14:14:59;7.80;99.00
9941;DHT22;5009;50.656;7.188;2023-03-04T14:17:34;7.80;98.90
9941;DHT22;5009;50.656;7.188;2023-03-04T14:20:49;7.80;98.90
9941;DHT22;5009;50.656;7.188;2023-03-04T14:22:50;7.90;98.70
9941;DHT22;5009;50.656;7.188;2023-03-04T14:25:26;7.80;98.50
9941;DHT22;5009;50.656;7.188;2023-03-04T14:28:24;7.90;98.60
9941;DHT22;5009;50.656;7.188;2023-03-04T14:30:51;7.80;98.50
9941;DHT22;5009;50.656;7.188;2023-03-04T14:33:22;7.80;98.70
9941;DHT22;5009;50.656;7.188;2023-03-04T14:35:50;7.90;98.50
9941;DHT22;5009;50.656;7.188;2023-03-04T14:38:34;7.80;98.70
9941;DHT22;5009;50.656;7.188;2023-03-04T14:46:21;7.90;98.70
9941;DHT22;5009;50.656;7.188;2023-03-04T14:48:51;7.90;98.50
9941;DHT22;5009;50.656;7.188;2023-03-04T14:54:21;7.90;98.60
9941;DHT22;5009;50.656;7.188;2023-03-04T14:56:49;7.90;98.60
9941;DHT22;5009;50.656;7.188;2023-03-04T14:59:14;7.90;98.60
9941;DHT22;5009;50.656;7.188;2023-03-04T15:01:40;7.90;98.70
9941;DHT22;5009;50.656;7.188;2023-03-04T15:04:10;7.90;98.60
9941;DHT22;5009;50.656;7.188;2023-03-04T15:06:53;7.90;98.60
9941;DHT22;5009;50.656;7.188;2023-03-04T15:09:24;7.90;98.80
9941;DHT22;5009;50.656;7.188;2023-03-04T15:12:01;7.80;99.40
9941;DHT22;5009;50.656;7.188;2023-03-04T15:14:44;7.80;99.80
9941;DHT22;5009;50.656;7.188;2023-03-04T15:17:33;7.80;99.90
9941;DHT22;5009;50.656;7.188;2023-03-04T15:22:28;7.80;99.90
9941;DHT22;5009;50.656;7.188;2023-03-04T15:24:54;7.80;99.90
9941;DHT22;5009;50.656;7.188;2023-03-04T15:27:21;7.70;99.90
9941;DHT22;5009;50.656;7.188;2023-03-04T15:29:52;7.70;99.90
9941;DHT22;5009;50.656;7.188;2023-03-04T15:32:24;7.70;99.90
9941;DHT22;5009;50.656;7.188;2023-03-04T15:34:49;7.70;99.90
9941;DHT22;5009;50.656;7.188;2023-03-04T15:37:22;7.70;99.90
9941;DHT22;5009;50.656;7.188;2023-03-04T15:39:49;7.70;99.90
9941;DHT22;5009;50.656;7.188;2023-03-04T15:42:16;7.80;99.90
9941;DHT22;5009;50.656;7.188;2023-03-04T15:44:42;7.80;99.90
9941;DHT22;5009;50.656;7.188;2023-03-04T15:47:09;7.70;99.90
9941;DHT22;5009;50.656;7.188;2023-03-04T15:49:37;7.70;99.90
9941;DHT22;5009;50.656;7.188;2023-03-04T15:52:04;7.70;99.90
9941;DHT22;5009;50.656;7.188;2023-03-04T15:54:30;7.70;99.90
9941;DHT22;5009;50.656;7.188;2023-03-04T15:56:57;7.70;99.90
9941;DHT22;5009;50.656;7.188;2023-03-04T15:59:24;7.70;99.90
9941;DHT22;5009;50.656;7.188;2023-03-04T16:01:50;7.70;99.90
9941;DHT22;5009;50.656;7.188;2023-03-04T16:04:16;7.70;99.90
9941;DHT22;5009;50.656;7.188;2023-03-04T16:06:43;7.70;99.90
9941;DHT22;5009;50.656;7.188;2023-03-04T16:09:12;7.70;99.90
9941;DHT22;5009;50.656;7.188;2023-03-04T16:11:41;7.70;99.90
9941;DHT22;5009;50.656;7.188;2023-03-04T16:14:10;7.70;99.90
9941;DHT22;5009;50.656;7.188;2023-03-04T16:16:37;7.70;99.90
9941;DHT22;5009;50.656;7.188;2023-03-04T16:19:02;7.70;99.90
9941;DHT22;5009;50.656;7.188;2023-03-04T16:21:28;7.60;99.90
9941;DHT22;5009;50.656;7.188;2023-03-04T16:23:54;7.70;99.90
9941;DHT22;5009;50.656;7.188;2023-03-04T16:26:21;7.70;99.90
9941;DHT22;5009;50.656;7.188;2023-03-04T16:28:48;7.60;99.90
9941;DHT22;5009;50.656;7.188;2023-03-04T16:31:14;7.70;99.90
9941;DHT22;5009;50.656;7.188;2023-03-04T16:33:40;7.70;99.90
9941;DHT22;5009;50.656;7.188;2023-03-04T16:36:26;7.70;99.90
9941;DHT22;5009;50.656;7.188;2023-03-04T16:38:54;7.70;99.90
9941;DHT22;5009;50.656;7.188;2023-03-04T16:41:25;7.60;99.90
9941;DHT22;5009;50.656;7.188;2023-03-04T16:43:52;7.60;99.90
9941;DHT22;5009;50.656;7.188;2023-03-04T16:46:19;7.60;99.90
9941;DHT22;5009;50.656;7.188;2023-03-04T16:48:46;7.60;99.90
9941;DHT22;5009;50.656;7.188;2023-03-04T16:51:14;7.60;99.90
9941;DHT22;5009;50.656;7.188;2023-03-04T16:53:43;7.50;99.90
9941;DHT22;5009;50.656;7.188;2023-03-04T16:56:13;7.60;99.90
9941;DHT22;5009;50.656;7.188;2023-03-04T16:58:39;7.60;99.90
9941;DHT22;5009;50.656;7.188;2023-03-04T17:01:05;7.60;99.90
9941;DHT22;5009;50.656;7.188;2023-03-04T17:03:31;7.60;99.90
9941;DHT22;5009;50.656;7.188;2023-03-04T17:05:57;7.60;99.90
9941;DHT22;5009;50.656;7.188;2023-03-04T17:08:23;7.50;99.90
9941;DHT22;5009;50.656;7.188;2023-03-04T17:10:48;7.50;99.90
9941;DHT22;5009;50.656;7.188;2023-03-04T17:13:14;7.50;99.90
9941;DHT22;5009;50.656;7.188;2023-03-04T17:15:40;7.50;99.90
9941;DHT22;5009;50.656;7.188;2023-03-04T17:18:09;7.50;99.90
9941;DHT22;5009;50.656;7.188;2023-03-04T17:20:35;7.50;99.90
9941;DHT22;5009;50.656;7.188;2023-03-04T17:23:00;7.50;99.90
9941;DHT22;5009;50.656;7.188;2023-03-04T17:25:26;7.50;99.90
9941;DHT22;5009;50.656;7.188;2023-03-04T17:27:51;7.50;99.90
9941;DHT22;5009;50.656;7.188;2023-03-04T17:30:17;7.50;99.90
9941;DHT22;5009;50.656;7.188;2023-03-04T17:32:43;7.50;99.90
9941;DHT22;5009;50.656;7.188;2023-03-04T17:35:10;7.50;99.90
9941;DHT22;5009;50.656;7.188;2023-03-04T17:37:36;7.50;99.90
9941;DHT22;5009;50.656;7.188;2023-03-04T17:40:06;7.50;99.90
9941;DHT22;5009;50.656;7.188;2023-03-04T17:42:33;7.40;99.90
9941;DHT22;5009;50.656;7.188;2023-03-04T17:44:58;7.40;99.90
9941;DHT22;5009;50.656;7.188;2023-03-04T17:47:24;7.40;99.90
9941;DHT22;5009;50.656;7.188;2023-03-04T17:49:50;7.40;99.90
9941;DHT22;5009;50.656;7.188;2023-03-04T17:52:16;7.40;99.90
9941;DHT22;5009;50.656;7.188;2023-03-04T17:54:41;7.40;99.90
9941;DHT22;5009;50.656;7.188;2023-03-04T17:57:09;7.30;99.90
9941;DHT22;5009;50.656;7.188;2023-03-04T17:59:34;7.40;99.90
9941;DHT22;5009;50.656;7.188;2023-03-04T18:02:00;7.30;99.90
9941;DHT22;5009;50.656;7.188;2023-03-04T18:04:25;7.30;99.90
9941;DHT22;5009;50.656;7.188;2023-03-04T18:06:51;7.40;99.90
9941;DHT22;5009;50.656;7.188;2023-03-04T18:09:17;7.40;99.90
9941;DHT22;5009;50.656;7.188;2023-03-04T18:11:42;7.40;99.90
9941;DHT22;5009;50.656;7.188;2023-03-04T18:14:08;7.40;99.90
9941;DHT22;5009;50.656;7.188;2023-03-04T18:16:36;7.30;99.90
9941;DHT22;5009;50.656;7.188;2023-03-04T18:19:03;7.20;99.90
9941;DHT22;5009;50.656;7.188;2023-03-04T18:21:29;7.20;99.90
9941;DHT22;5009;50.656;7.188;2023-03-04T18:23:55;7.20;99.90
9941;DHT22;5009;50.656;7.188;2023-03-04T18:26:21;7.20;99.90
9941;DHT22;5009;50.656;7.188;2023-03-04T18:28:48;7.20;99.90
9941;DHT22;5009;50.656;7.188;2023-03-04T18:31:17;7.20;99.90
9941;DHT22;5009;50.656;7.188;2023-03-04T18:33:43;7.20;99.90
9941;DHT22;5009;50.656;7.188;2023-03-04T18:36:10;7.30;99.90
9941;DHT22;5009;50.656;7.188;2023-03-04T18:38:36;7.30;99.90
9941;DHT22;5009;50.656;7.188;2023-03-04T18:41:05;7.30;99.90
9941;DHT22;5009;50.656;7.188;2023-03-04T18:43:32;7.30;99.90
9941;DHT22;5009;50.656;7.188;2023-03-04T18:48:36;7.30;99.90
9941;DHT22;5009;50.656;7.188;2023-03-04T18:51:03;7.30;99.90
9941;DHT22;5009;50.656;7.188;2023-03-04T18:53:30;7.20;99.90
9941;DHT22;5009;50.656;7.188;2023-03-04T18:55:58;7.30;99.90
9941;DHT22;5009;50.656;7.188;2023-03-04T18:58:29;7.30;99.90
9941;DHT22;5009;50.656;7.188;2023-03-04T19:00:55;7.20;99.90
9941;DHT22;5009;50.656;7.188;2023-03-04T19:03:22;7.20;99.90
9941;DHT22;5009;50.656;7.188;2023-03-04T19:05:48;7.20;99.90
9941;DHT22;5009;50.656;7.188;2023-03-04T19:08:13;7.20;99.90
9941;DHT22;5009;50.656;7.188;2023-03-04T19:10:39;7.30;99.90
9941;DHT22;5009;50.656;7.188;2023-03-04T19:13:04;7.20;99.90
9941;DHT22;5009;50.656;7.188;2023-03-04T19:15:30;7.30;99.90
9941;DHT22;5009;50.656;7.188;2023-03-04T19:17:55;7.20;99.90
9941;DHT22;5009;50.656;7.188;2023-03-04T19:20:21;7.20;99.90
9941;DHT22;5009;50.656;7.188;2023-03-04T19:22:46;7.20;99.90
9941;DHT22;5009;50.656;7.188;2023-03-04T19:25:12;7.20;99.90
9941;DHT22;5009;50.656;7.188;2023-03-04T19:27:38;7.20;99.90
9941;DHT22;5009;50.656;7.188;2023-03-04T19:30:04;7.20;99.90
9941;DHT22;5009;50.656;7.188;2023-03-04T19:32:30;7.20;99.90
9941;DHT22;5009;50.656;7.188;2023-03-04T19:34:56;7.20;99.90
9941;DHT22;5009;50.656;7.188;2023-03-04T19:37:21;7.20;99.90
9941;DHT22;5009;50.656;7.188;2023-03-04T19:39:47;7.20;99.90
9941;DHT22;5009;50.656;7.188;2023-03-04T19:42:17;7.20;99.90
9941;DHT22;5009;50.656;7.188;2023-03-04T19:44:42;7.20;99.90
9941;DHT22;5009;50.656;7.188;2023-03-04T19:47:08;7.10;99.90
9941;DHT22;5009;50.656;7.188;2023-03-04T19:49:34;7.10;99.90
9941;DHT22;5009;50.656;7.188;2023-03-04T19:51:59;7.10;99.90
9941;DHT22;5009;50.656;7.188;2023-03-04T19:54:27;7.10;99.90
9941;DHT22;5009;50.656;7.188;2023-03-04T19:56:52;7.10;99.90
9941;DHT22;5009;50.656;7.188;2023-03-04T19:59:18;7.10;99.90
9941;DHT22;5009;50.656;7.188;2023-03-04T20:01:44;7.10;99.90
9941;DHT22;5009;50.656;7.188;2023-03-04T20:04:16;7.00;99.90
9941;DHT22;5009;50.656;7.188;2023-03-04T20:06:44;7.00;99.90
9941;DHT22;5009;50.656;7.188;2023-03-04T20:09:11;7.00;99.90
9941;DHT22;5009;50.656;7.188;2023-03-04T20:11:37;7.00;99.90
9941;DHT22;5009;50.656;7.188;2023-03-04T20:14:03;7.10;99.90
9941;DHT22;5009;50.656;7.188;2023-03-04T20:16:30;7.00;99.90
9941;DHT22;5009;50.656;7.188;2023-03-04T20:18:56;7.00;99.90
9941;DHT22;5009;50.656;7.188;2023-03-04T20:21:30;7.00;99.90
9941;DHT22;5009;50.656;7.188;2023-03-04T20:23:59;7.00;99.90
9941;DHT22;5009;50.656;7.188;2023-03-04T20:26:27;7.00;99.90
9941;DHT22;5009;50.656;7.188;2023-03-04T20:28:53;7.00;99.90
9941;DHT22;5009;50.656;7.188;2023-03-04T20:33:47;7.00;99.90
9941;DHT22;5009;50.656;7.188;2023-03-04T20:36:17;7.00;99.90
9941;DHT22;5009;50.656;7.188;2023-03-04T20:38:43;6.90;99.90
9941;DHT22;5009;50.656;7.188;2023-03-04T20:41:09;6.90;99.90
9941;DHT22;5009;50.656;7.188;2023-03-04T20:43:35;6.90;99.90
9941;DHT22;5009;50.656;7.188;2023-03-04T20:46:23;6.90;99.90
9941;DHT22;5009;50.656;7.188;2023-03-04T20:48:49;6.90;99.90
9941;DHT22;5009;50.656;7.188;2023-03-04T20:51:14;6.90;99.90
9941;DHT22;5009;50.656;7.188;2023-03-04T20:53:40;6.90;99.90
9941;DHT22;5009;50.656;7.188;2023-03-04T20:56:05;6.90;99.90
9941;DHT22;5009;50.656;7.188;2023-03-04T20:58:31;6.90;99.90
9941;DHT22;5009;50.656;7.188;2023-03-04T21:00:57;6.90;99.90
9941;DHT22;5009;50.656;7.188;2023-03-04T21:03:22;6.90;99.90
9941;DHT22;5009;50.656;7.188;2023-03-04T21:05:48;6.90;99.90
9941;DHT22;5009;50.656;7.188;2023-03-04T21:08:13;6.90;99.90
9941;DHT22;5009;50.656;7.188;2023-03-04T21:10:39;6.90;99.90
9941;DHT22;5009;50.656;7.188;2023-03-04T21:13:04;6.90;99.90
9941;DHT22;5009;50.656;7.188;2023-03-04T21:15:30;6.90;99.90
9941;DHT22;5009;50.656;7.188;2023-03-04T21:17:55;6.90;99.90
9941;DHT22;5009;50.656;7.188;2023-03-04T21:20:21;6.90;99.90
9941;DHT22;5009;50.656;7.188;2023-03-04T21:22:46;6.90;99.90
9941;DHT22;5009;50.656;7.188;2023-03-04T21:25:12;6.80;99.90
9941;DHT22;5009;50.656;7.188;2023-03-04T21:27:38;6.80;99.90
9941;DHT22;5009;50.656;7.188;2023-03-04T21:30:09;6.80;99.90
9941;DHT22;5009;50.656;7.188;2023-03-04T21:32:34;6.80;99.90
9941;DHT22;5009;50.656;7.188;2023-03-04T21:35:00;6.80;99.90
9941;DHT22;5009;50.656;7.188;2023-03-04T21:37:26;6.80;99.90
9941;DHT22;5009;50.656;7.188;2023-03-04T21:39:52;6.80;99.90
9941;DHT22;5009;50.656;7.188;2023-03-04T21:42:19;6.80;99.90
9941;DHT22;5009;50.656;7.188;2023-03-04T21:44:45;6.90;99.90
9941;DHT22;5009;50.656;7.188;2023-03-04T21:47:10;6.90;99.90
9941;DHT22;5009;50.656;7.188;2023-03-04T21:49:36;6.80;99.90
9941;DHT22;5009;50.656;7.188;2023-03-04T21:52:02;6.80;99.90
9941;DHT22;5009;50.656;7.188;2023-03-04T21:54:28;6.80;99.90
9941;DHT22;5009;50.656;7.188;2023-03-04T21:56:54;6.80;99.90
9941;DHT22;5009;50.656;7.188;2023-03-04T21:59:19;6.90;99.90
